Truxton, Arizona
Current Conditions -  °F | °C
As of 6:51 AM on Tuesday 21 Oct 2014 (Local Time) from KIGM Reporting Station
Clear Clear  
Wind Chill: 60°   Ceiling: Unl
Heat Index: 60°   Visibility: 10mi
Dew Point: 43°   Wind: 14mph
Humidity: 53%   Direction: 120°ESE
Pressure: 29.97"   Gusts: NA
Location:  35.5603°N, 113.544°W
Report Text: KIGM 211351Z AUTO 12012KT 10SM CLR 16/06 A2997 RMK AO2 SLP096 T01560061 $
Loading
Personal Weather Stations






























Interactive Weather Map
Tropical Storm Tracking
New forecast layout! Learn more

10-Day Weather Forecast

Advertisements
Track Severe Weather on mobile